Airfield :
LOGIN :

Register | Disclaimer

   EN    FR    IT 

 










Legend :    VFR   Marginal VFR   IFR   Intensive IFR   Very Intensive IFR
Visi :
Ceiling :
>= 8 km
>= 3000ft
5 to 8 km
1000 to 3000 ft
1500m to 5 km
500 to 1000 ft
800 to 1500m
200 to 500 ft
< 800m
< 200 ft
Symbols :   Thunderstorms  Fog  Heavy snow  Heavy precipitations  Wind > 20 kt
SIGMETs :     Misc.  Thunderstorms  Icing  Turbulence  Mountain Waves  Volcanic Ashes






- Airport Elevation : 21 ft
- IATA code : BJV


LTFE - Bodrum

CURRENT METAR :
  • 202350Z 10002KT 9999 FEW035 SCT200 13/11 Q1015 NOSIG RMK RWY10 08004KT

EXPIRED METARs :
  • 202320Z 13003KT 9999 FEW035 SCT200 13/11 Q1016 NOSIG RMK RWY10 05002KT
  • 202250Z 16003KT 9999 FEW035 SCT200 14/11 Q1016 NOSIG RMK RWY10 00000KT
  • 202220Z 00000KT 9999 FEW035 SCT200 14/11 Q1016 NOSIG RMK RWY10 09002KT
  • 202150Z 14003KT 9999 FEW035 SCT200 15/11 Q1016 NOSIG RMK RWY10 VRB01KT
  • 202120Z 15004KT 9999 FEW035 SCT200 15/12 Q1016 NOSIG RMK RWY10 12005KT

TAF TAF LTFE
Valid from the 21 at 00:00 until the 22 at 00:00 UTC


202240Z 2100/2124 VRB02KT 9999 FEW035 SCT100
BECMG 2108/2110 26013KT
BECMG 2111/2113 -SHRA
PROB40
TEMPO 2113/2116 12012KT -TSRA FEW020CB BKN030
BECMG 2114/2117 VRB02KT



MET'MAP, your aeronautical weather chart ! - Copyright ORBIFLY December 2007 - Disclaimer

ORBIFLY MET'MAP TEAM :

Programming & Development : Alexandra Zaïnal
Original concept : Baudouin d'Aumeries
Technical & hardware support : Manuel Goepfert
Assistance : Marc-Olivier Méhu

Contact : metmap@orbifly.com




SOURCES & CREDITS :

   NOAA